Time;durP1;ratioP1;P1;durP2;ratioP2;P2;SDS_P1;SDS_P2;PMS_P1;PMS_P2;Temp;Humidity;BMP_temperature;BMP_pressure;BME280_temperature;BME280_humidity;BME280_pressure;Samples;Min_cycle;Max_cycle;Signal;HPM_P1;HPM_P2
2022/06/08 00:02:58;;;;;;;4.95;1.40;;;17.00;99.90;;;;;;6943721;28;20076;-79
2022/06/08 00:06:20;;;;;;;4.15;1.20;;;17.00;99.90;;;;;;6943620;28;20050;-76
2022/06/08 00:09:42;;;;;;;4.35;1.17;;;17.00;99.90;;;;;;6943744;28;20088;-79
2022/06/08 00:13:06;;;;;;;5.20;1.17;;;16.90;99.90;;;;;;6944716;28;20054;-79
2022/06/08 00:16:28;;;;;;;4.68;1.02;;;16.90;99.90;;;;;;6944180;28;20050;-79
2022/06/08 00:19:50;;;;;;;4.00;1.17;;;16.90;99.90;;;;;;6938268;28;20081;-79
2022/06/08 00:23:13;;;;;;;5.30;1.13;;;16.90;99.90;;;;;;6941671;28;20507;-80
2022/06/08 00:26:36;;;;;;;3.67;1.20;;;16.90;99.90;;;;;;6943251;28;20509;-80
2022/06/08 00:30:00;;;;;;;2.10;1.00;;;16.90;99.90;;;;;;6942627;28;20117;-79
2022/06/08 00:33:22;;;;;;;4.38;1.10;;;16.90;99.90;;;;;;6943070;28;20049;-79
2022/06/08 00:36:44;;;;;;;4.27;1.20;;;16.90;99.90;;;;;;6942741;28;20131;-79
2022/06/08 00:40:10;;;;;;;5.40;1.27;;;16.90;99.90;;;;;;6943316;28;20096;-78
2022/06/08 00:43:32;;;;;;;4.28;1.20;;;16.80;99.90;;;;;;6942639;28;20085;-79
2022/06/08 00:46:57;;;;;;;2.65;1.00;;;16.80;99.90;;;;;;6942721;28;20048;-78
2022/06/08 00:50:25;;;;;;;4.13;1.60;;;16.80;99.90;;;;;;6942296;28;20060;-79
2022/06/08 00:53:52;;;;;;;6.13;1.50;;;16.80;99.90;;;;;;6941871;28;20395;-79
2022/06/08 00:57:20;;;;;;;3.25;1.52;;;16.80;99.90;;;;;;6942654;28;20049;-77
2022/06/08 01:00:44;;;;;;;2.70;1.30;;;16.70;99.90;;;;;;6914160;28;20153;-79
2022/06/08 01:04:11;;;;;;;3.35;1.25;;;16.60;99.90;;;;;;6942355;28;20084;-78
2022/06/08 01:07:33;;;;;;;4.03;1.40;;;16.60;99.90;;;;;;6939985;28;20192;-78
2022/06/08 01:11:00;;;;;;;4.03;1.40;;;16.60;99.90;;;;;;6943233;28;20440;-78
2022/06/08 01:14:22;;;;;;;4.55;1.30;;;16.60;99.90;;;;;;6942307;28;20077;-79
2022/06/08 01:17:44;;;;;;;3.88;1.40;;;16.60;99.90;;;;;;6940188;28;20048;-78
2022/06/08 01:21:56;;;;;;;4.40;1.20;;;16.50;99.90;;;;;;6943222;28;20053;-79
2022/06/08 01:25:19;;;;;;;9.40;1.50;;;16.60;99.90;;;;;;6941416;28;20083;-79
2022/06/08 01:28:50;;;;;;;4.13;1.60;;;16.50;99.90;;;;;;6913099;28;20475;-80
2022/06/08 01:32:24;;;;;;;6.63;1.23;;;16.50;99.90;;;;;;6940621;28;20049;-78
2022/06/08 01:36:02;;;;;;;5.13;1.70;;;16.50;99.90;;;;;;6941782;28;20041;-78
2022/06/08 01:39:46;;;;;;;5.70;1.52;;;16.50;99.90;;;;;;6942017;28;20419;-78
2022/06/08 01:43:24;;;;;;;4.53;1.70;;;16.60;99.90;;;;;;6942756;28;20050;-78
2022/06/08 01:46:59;;;;;;;3.20;1.40;;;16.50;99.90;;;;;;6921416;28;20451;-78
2022/06/08 01:50:31;;;;;;;4.03;1.13;;;16.50;99.90;;;;;;6922198;28;20108;-80
2022/06/08 01:53:58;;;;;;;3.53;1.13;;;16.50;99.90;;;;;;6941578;28;20064;-78
2022/06/08 01:57:44;;;;;;;3.72;1.40;;;16.50;99.90;;;;;;6940913;28;20103;-78
2022/06/08 02:01:17;;;;;;;3.33;1.40;;;16.40;99.90;;;;;;6940932;28;20057;-78
2022/06/08 02:04:47;;;;;;;3.22;1.30;;;16.30;99.90;;;;;;6940517;28;20080;-79
2022/06/08 02:08:17;;;;;;;4.25;1.40;;;16.30;99.90;;;;;;6940879;28;20072;-78
2022/06/08 02:11:45;;;;;;;5.43;1.45;;;16.30;99.90;;;;;;6911004;28;20084;-80
2022/06/08 02:15:14;;;;;;;4.00;1.55;;;16.20;99.90;;;;;;6938686;28;20057;-79
2022/06/08 02:18:41;;;;;;;12.48;1.58;;;16.30;99.90;;;;;;6937315;28;20084;-79
2022/06/08 02:22:10;;;;;;;3.25;1.30;;;16.20;99.90;;;;;;6940816;28;20076;-79
2022/06/08 02:25:38;;;;;;;2.97;1.40;;;16.20;99.90;;;;;;6940329;28;20080;-79
2022/06/08 02:29:06;;;;;;;3.28;1.40;;;16.20;99.90;;;;;;6938905;28;20525;-78
2022/06/08 02:36:22;;;;;;;5.45;1.63;;;16.10;99.90;;;;;;6906843;28;20041;-80
2022/06/08 02:39:50;;;;;;;6.60;1.70;;;16.20;99.90;;;;;;6940347;28;20081;-79
2022/06/08 02:43:19;;;;;;;3.85;1.40;;;16.10;99.90;;;;;;6941508;28;20089;-78
2022/06/08 02:46:48;;;;;;;5.32;1.58;;;16.10;99.90;;;;;;6910931;28;20049;-78
2022/06/08 02:50:17;;;;;;;3.63;1.38;;;16.10;99.90;;;;;;6939313;28;20139;-79
2022/06/08 02:53:53;;;;;;;5.88;1.60;;;16.10;99.90;;;;;;6940105;28;20041;-77
2022/06/08 02:57:28;;;;;;;3.60;1.20;;;16.00;99.90;;;;;;6940204;28;20084;-79
2022/06/08 03:00:55;;;;;;;4.63;1.60;;;16.00;99.90;;;;;;6913039;28;20056;-79
2022/06/08 03:04:23;;;;;;;5.30;1.60;;;16.00;99.90;;;;;;6939452;28;20080;-80
2022/06/08 03:07:53;;;;;;;3.72;1.33;;;15.90;99.90;;;;;;6940195;28;20041;-79
2022/06/08 03:11:16;;;;;;;3.75;1.50;;;15.90;99.90;;;;;;6939620;28;20069;-79
2022/06/08 03:14:39;;;;;;;6.72;1.42;;;15.90;99.90;;;;;;6936792;28;20046;-79
2022/06/08 03:18:02;;;;;;;;;;;15.90;99.90;;;;;;6929629;28;20072;-79
2022/06/08 03:21:25;;;;;;;5.60;1.75;;;15.80;99.90;;;;;;6942842;28;19921;-78
2022/06/08 03:24:49;;;;;;;4.15;1.77;;;15.90;99.90;;;;;;6946151;28;20041;-78
2022/06/08 03:28:12;;;;;;;4.38;1.70;;;15.80;99.90;;;;;;6944893;28;20057;-78
2022/06/08 03:31:34;;;;;;;3.78;1.70;;;15.80;99.90;;;;;;6944470;28;20664;-79
2022/06/08 03:34:56;;;;;;;3.95;1.40;;;15.80;99.90;;;;;;6945021;28;20080;-78
2022/06/08 03:38:18;;;;;;;6.60;2.03;;;15.70;99.90;;;;;;6944844;28;20092;-78
2022/06/08 03:41:44;;;;;;;5.40;1.40;;;15.70;99.90;;;;;;6942929;28;20511;-77
2022/06/08 03:45:08;;;;;;;5.10;1.63;;;15.60;99.90;;;;;;6934418;28;20103;-78
2022/06/08 03:48:30;;;;;;;3.03;1.27;;;15.50;99.90;;;;;;6945677;28;20080;-77
2022/06/08 03:51:56;;;;;;;3.17;1.27;;;15.30;99.90;;;;;;6944106;28;20073;-78
2022/06/08 03:55:20;;;;;;;3.10;1.60;;;15.20;99.90;;;;;;6942311;28;20083;-78
2022/06/08 03:58:44;;;;;;;4.55;1.40;;;15.20;99.90;;;;;;6942544;28;20049;-77
2022/06/08 04:02:07;;;;;;;3.05;1.20;;;15.20;99.90;;;;;;6944326;28;20061;-80
2022/06/08 04:05:29;;;;;;;2.25;1.20;;;15.20;99.90;;;;;;6944158;28;20091;-80
2022/06/08 04:08:51;;;;;;;5.57;1.67;;;15.40;99.90;;;;;;6943322;28;20041;-79
2022/06/08 04:12:14;;;;;;;6.10;1.60;;;15.50;99.90;;;;;;6943424;28;20096;-78
2022/06/08 04:15:43;;;;;;;2.30;1.10;;;15.50;99.90;;;;;;6943702;28;20085;-79
2022/06/08 04:19:05;;;;;;;6.13;1.50;;;15.50;99.90;;;;;;6935559;28;20052;-80
2022/06/08 04:22:31;;;;;;;4.03;1.40;;;15.50;99.90;;;;;;6942262;28;20077;-78
2022/06/08 04:25:54;;;;;;;4.60;1.35;;;15.60;99.90;;;;;;6941493;28;20044;-78
2022/06/08 04:29:16;;;;;;;;;;;15.60;99.90;;;;;;6940723;28;20088;-80
2022/06/08 04:32:40;;;;;;;3.53;1.55;;;15.60;99.90;;;;;;6923999;28;20403;-79
2022/06/08 04:36:02;;;;;;;5.20;1.58;;;15.70;99.90;;;;;;6918136;28;20080;-79
2022/06/08 04:39:24;;;;;;;6.50;1.40;;;15.80;99.90;;;;;;6917949;28;20077;-79
2022/06/08 04:42:46;;;;;;;4.67;1.70;;;15.80;99.90;;;;;;6917902;28;20086;-79
2022/06/08 04:46:12;;;;;;;8.13;1.75;;;15.80;99.90;;;;;;6918158;28;20508;-78
2022/06/08 04:49:36;;;;;;;5.68;1.80;;;15.80;99.90;;;;;;6917817;28;20049;-79
2022/06/08 04:52:58;;;;;;;5.90;2.33;;;15.80;99.90;;;;;;6917573;28;20054;-78
2022/06/08 04:56:20;;;;;;;4.72;1.73;;;15.90;99.90;;;;;;6917511;28;20056;-80
2022/06/08 04:59:42;;;;;;;4.22;1.73;;;15.90;99.90;;;;;;6917634;28;20114;-80
2022/06/08 05:03:05;;;;;;;8.27;1.87;;;15.90;99.90;;;;;;6916179;28;20157;-79
2022/06/08 05:06:28;;;;;;;4.57;1.53;;;15.90;99.90;;;;;;6917391;28;20076;-80
2022/06/08 05:09:50;;;;;;;4.47;1.65;;;15.90;99.90;;;;;;6917260;28;20335;-80
2022/06/08 05:13:14;;;;;;;5.13;1.60;;;15.90;99.90;;;;;;6917100;28;20529;-79
2022/06/08 05:16:36;;;;;;;5.55;1.80;;;15.80;99.90;;;;;;6917219;28;20050;-80
2022/06/08 05:19:58;;;;;;;5.33;1.57;;;15.80;99.90;;;;;;6916904;28;20089;-79
2022/06/08 05:23:27;;;;;;;5.37;1.70;;;15.90;99.90;;;;;;6916954;28;20053;-79
2022/06/08 05:26:49;;;;;;;6.35;1.80;;;15.90;99.90;;;;;;6917007;28;20056;-80
2022/06/08 05:30:12;;;;;;;4.70;1.73;;;15.90;99.90;;;;;;6917032;28;20081;-81
2022/06/08 05:33:35;;;;;;;5.95;1.80;;;15.90;99.90;;;;;;6916664;28;20057;-80
2022/06/08 05:36:57;;;;;;;4.55;1.95;;;15.90;99.90;;;;;;6916959;28;20085;-80
2022/06/08 05:40:21;;;;;;;6.20;2.00;;;15.80;99.90;;;;;;6916871;28;20483;-79
2022/06/08 05:43:43;;;;;;;6.88;1.90;;;15.90;99.90;;;;;;6920434;28;20056;-81
2022/06/08 05:47:06;;;;;;;4.13;1.90;;;16.00;99.90;;;;;;6927102;28;20046;-78
2022/06/08 05:50:28;;;;;;;;;;;16.10;99.90;;;;;;6924035;28;20050;-79
2022/06/08 05:53:50;;;;;;;8.25;1.80;;;16.20;99.90;;;;;;6923394;28;19925;-79
2022/06/08 05:57:14;;;;;;;5.77;2.07;;;16.30;99.90;;;;;;6918476;28;20042;-78
2022/06/08 06:00:39;;;;;;;7.35;1.95;;;16.40;99.90;;;;;;6919485;28;20053;-77
2022/06/08 06:04:03;;;;;;;5.65;1.85;;;16.40;99.90;;;;;;6919902;28;20507;-78
2022/06/08 06:07:25;;;;;;;4.25;1.70;;;16.30;99.90;;;;;;6917430;28;20050;-78
2022/06/08 06:10:48;;;;;;;5.30;1.60;;;16.30;99.90;;;;;;6916377;28;20105;-80
2022/06/08 06:14:12;;;;;;;5.15;1.67;;;16.30;99.90;;;;;;6916925;28;20085;-78
2022/06/08 06:17:34;;;;;;;5.28;1.73;;;16.30;99.90;;;;;;6916331;28;20092;-79
2022/06/08 06:20:56;;;;;;;7.43;2.08;;;16.40;99.90;;;;;;6915393;28;20160;-80
2022/06/08 06:24:21;;;;;;;6.70;2.10;;;16.30;99.90;;;;;;6916336;28;20073;-79
2022/06/08 06:27:43;;;;;;;8.98;2.00;;;16.30;99.90;;;;;;6915726;28;20108;-78
2022/06/08 06:31:07;;;;;;;6.68;1.90;;;16.40;99.90;;;;;;6915433;28;20081;-79
2022/06/08 06:34:30;;;;;;;5.32;2.33;;;16.40;99.90;;;;;;6915395;28;20045;-79
2022/06/08 06:37:52;;;;;;;3.88;2.00;;;16.50;99.90;;;;;;6915209;28;20049;-80
2022/06/08 06:41:16;;;;;;;6.63;1.90;;;16.40;99.90;;;;;;6915300;28;20097;-80
2022/06/08 06:44:38;;;;;;;5.03;1.80;;;16.50;99.90;;;;;;6915090;28;20393;-80
2022/06/08 06:48:02;;;;;;;5.13;1.80;;;16.40;99.90;;;;;;6915529;28;20085;-80
2022/06/08 06:51:24;;;;;;;5.57;2.10;;;16.50;99.90;;;;;;6915009;28;20131;-80
2022/06/08 06:54:47;;;;;;;5.93;2.00;;;16.60;99.90;;;;;;6918511;28;20049;-80
2022/06/08 06:58:09;;;;;;;4.00;1.98;;;16.60;99.90;;;;;;6920507;28;20046;-80
2022/06/08 07:01:34;;;;;;;3.67;2.10;;;16.60;99.90;;;;;;6920704;28;20085;-80
2022/06/08 07:04:57;;;;;;;5.18;2.05;;;16.70;99.90;;;;;;6920643;28;20054;-79
2022/06/08 07:08:19;;;;;;;5.25;1.90;;;16.80;99.90;;;;;;6920974;28;20081;-82
2022/06/08 07:11:42;;;;;;;5.53;2.00;;;17.00;99.90;;;;;;6920244;28;20077;-80
2022/06/08 07:15:06;;;;;;;6.20;2.10;;;17.10;99.90;;;;;;6920297;28;20478;-79
2022/06/08 07:18:28;;;;;;;6.13;2.08;;;17.10;99.90;;;;;;6920611;28;20081;-80
2022/06/08 07:21:52;;;;;;;3.85;1.80;;;17.10;99.90;;;;;;6920174;28;20042;-80
2022/06/08 07:25:15;;;;;;;3.88;1.70;;;17.20;99.90;;;;;;6920259;28;20101;-78
2022/06/08 07:28:37;;;;;;;6.20;1.90;;;17.30;99.90;;;;;;6920236;28;20082;-81
2022/06/08 07:32:00;;;;;;;6.00;2.10;;;17.30;99.90;;;;;;6919736;28;20573;-79
2022/06/08 07:35:22;;;;;;;5.80;1.95;;;17.40;99.90;;;;;;6920294;28;20072;-79
2022/06/08 07:38:45;;;;;;;7.90;2.00;;;17.50;99.90;;;;;;6919695;28;20092;-81
2022/06/08 07:42:08;;;;;;;6.03;1.98;;;17.50;99.90;;;;;;6919710;28;20081;-79
2022/06/08 07:45:31;;;;;;;;;;;17.60;99.90;;;;;;6919877;28;20504;-80
2022/06/08 07:52:32;;;;;;;9.77;1.98;;;17.80;99.90;;;;;;6919364;28;20145;-78
2022/06/08 07:55:56;;;;;;;7.53;1.80;;;17.80;99.90;;;;;;6918983;28;20527;-80
2022/06/08 07:59:18;;;;;;;4.45;1.77;;;18.00;99.90;;;;;;6919347;28;20798;-75
2022/06/08 08:02:40;;;;;;;3.83;1.70;;;18.10;99.90;;;;;;6919382;28;20054;-77
2022/06/08 08:06:03;;;;;;;5.57;1.75;;;18.10;99.90;;;;;;6918796;28;20046;-76
2022/06/08 08:09:25;;;;;;;4.97;1.80;;;18.10;99.90;;;;;;6918910;28;20060;-79
2022/06/08 08:12:49;;;;;;;3.03;1.42;;;18.10;99.90;;;;;;6918756;28;20086;-79
2022/06/08 08:16:11;;;;;;;6.47;1.95;;;18.20;99.90;;;;;;6918790;28;20046;-80
2022/06/08 08:19:33;;;;;;;4.77;1.83;;;18.10;99.90;;;;;;6918907;28;20507;-79
2022/06/08 08:22:55;;;;;;;4.43;1.65;;;18.20;99.90;;;;;;6918364;28;20876;-79
2022/06/08 08:26:18;;;;;;;7.40;2.92;;;18.30;99.90;;;;;;6918575;28;20559;-79
2022/06/08 08:29:41;;;;;;;6.35;2.90;;;18.40;99.90;;;;;;6918694;28;20084;-77
2022/06/08 08:33:04;;;;;;;6.18;2.50;;;18.60;99.90;;;;;;6917964;28;20081;-80
2022/06/08 08:36:27;;;;;;;5.97;2.35;;;18.60;99.90;;;;;;6918210;28;20507;-79
2022/06/08 08:39:49;;;;;;;5.20;1.83;;;18.70;99.90;;;;;;6918406;28;20103;-79
2022/06/08 08:43:15;;;;;;;7.07;2.00;;;18.80;99.90;;;;;;6918010;28;20085;-78
2022/06/08 08:46:48;;;;;;;7.47;1.75;;;18.80;99.90;;;;;;6918133;28;20053;-78
2022/06/08 08:50:21;;;;;;;6.30;1.90;;;19.00;99.90;;;;;;6918113;28;20056;-79
2022/06/08 08:54:03;;;;;;;7.35;1.63;;;19.10;99.90;;;;;;6918111;28;20096;-79
2022/06/08 08:57:31;;;;;;;;;;;19.10;99.90;;;;;;6921383;28;20488;-77
2022/06/08 09:00:57;;;;;;;6.22;1.70;;;19.10;99.90;;;;;;6917964;28;19992;-80
2022/06/08 09:04:29;;;;;;;4.80;1.50;;;19.20;99.90;;;;;;6917496;28;20447;-79
2022/06/08 09:07:51;;;;;;;4.32;1.40;;;19.20;99.90;;;;;;6917498;28;20140;-79
2022/06/08 09:11:17;;;;;;;5.30;1.40;;;19.20;99.90;;;;;;6917356;28;20105;-77
2022/06/08 09:14:55;;;;;;;4.25;1.60;;;19.30;99.90;;;;;;6917343;28;20507;-80
2022/06/08 09:18:34;;;;;;;4.20;1.50;;;19.30;99.90;;;;;;6916707;28;20419;-77
2022/06/08 09:22:19;;;;;;;5.30;1.30;;;19.30;99.90;;;;;;6917052;28;20140;-80
2022/06/08 09:25:41;;;;;;;4.53;1.25;;;19.40;98.60;;;;;;6917613;28;20049;-76
2022/06/08 09:29:15;;;;;;;5.10;1.33;;;19.40;98.40;;;;;;6916963;28;20077;-80
2022/06/08 09:32:45;;;;;;;4.18;1.40;;;19.40;98.30;;;;;;6917040;28;20053;-79
2022/06/08 09:36:25;;;;;;;4.95;1.20;;;19.50;98.30;;;;;;6916719;28;20046;-80
2022/06/08 09:39:49;;;;;;;4.20;1.08;;;19.70;97.10;;;;;;6916511;28;20092;-78
2022/06/08 09:43:48;;;;;;;4.70;1.30;;;19.80;94.70;;;;;;6916443;28;20056;-80
2022/06/08 09:51:27;;;;;;;4.88;1.23;;;20.00;94.40;;;;;;6881016;28;20046;-80
2022/06/08 09:55:07;;;;;;;6.63;1.17;;;20.10;90.20;;;;;;6916479;28;20460;-80
2022/06/08 09:58:50;;;;;;;4.47;1.13;;;20.10;90.70;;;;;;6916080;28;20511;-80
2022/06/08 10:02:28;;;;;;;3.22;1.00;;;20.30;90.60;;;;;;6915962;28;20082;-81
2022/06/08 10:06:01;;;;;;;4.72;1.13;;;20.30;88.60;;;;;;6915974;28;20125;-80
2022/06/08 10:09:33;;;;;;;3.15;1.23;;;20.40;88.50;;;;;;6915916;28;20050;-80
2022/06/08 10:12:59;;;;;;;2.30;1.00;;;20.40;87.50;;;;;;6915780;28;20100;-79
2022/06/08 10:16:24;;;;;;;3.58;1.13;;;20.60;88.60;;;;;;6916016;28;20093;-79
2022/06/08 10:19:57;;;;;;;2.88;1.20;;;20.70;87.70;;;;;;6916037;28;20120;-80
2022/06/08 10:23:28;;;;;;;4.78;1.00;;;20.80;85.10;;;;;;6915982;28;20042;-79
2022/06/08 10:26:57;;;;;;;3.90;1.02;;;20.90;84.70;;;;;;6917427;28;20052;-78
2022/06/08 10:30:28;;;;;;;6.53;1.77;;;20.90;81.90;;;;;;6916142;28;20140;-80
2022/06/08 10:34:03;;;;;;;5.78;1.17;;;21.00;84.30;;;;;;6916248;28;20096;-79
2022/06/08 10:37:32;;;;;;;3.10;1.10;;;21.00;78.10;;;;;;6915516;28;20046;-79
2022/06/08 10:41:00;;;;;;;3.40;1.15;;;20.90;79.70;;;;;;6916342;28;20085;-78
2022/06/08 10:44:35;;;;;;;5.05;1.17;;;21.00;79.10;;;;;;6915618;28;20108;-79
2022/06/08 10:48:02;;;;;;;3.33;1.05;;;21.00;78.90;;;;;;6915917;28;20093;-80
2022/06/08 10:51:39;;;;;;;3.63;1.20;;;21.10;78.70;;;;;;6915904;28;20495;-80
2022/06/08 10:55:39;;;;;;;2.50;0.90;;;21.20;77.40;;;;;;6915507;28;20073;-77
2022/06/08 10:59:14;;;;;;;4.90;1.00;;;21.20;78.50;;;;;;6915719;28;20061;-77
2022/06/08 11:02:41;;;;;;;5.03;1.10;;;21.40;78.90;;;;;;6915772;28;20476;-81
2022/06/08 11:06:09;;;;;;;3.38;1.02;;;21.50;75.80;;;;;;6915850;28;20049;-77
2022/06/08 11:10:00;;;;;;;2.97;0.80;;;21.40;73.10;;;;;;6915243;28;20057;-78
2022/06/08 11:13:32;;;;;;;4.72;1.02;;;21.60;75.20;;;;;;6915138;28;20061;-80
2022/06/08 11:17:00;;;;;;;4.22;0.88;;;21.80;73.70;;;;;;6915908;28;20081;-79
2022/06/08 11:20:29;;;;;;;3.33;0.98;;;21.80;72.00;;;;;;6915166;28;20053;-79
2022/06/08 11:23:56;;;;;;;6.25;1.35;;;21.70;73.00;;;;;;6915393;28;20065;-80
2022/06/08 11:27:30;;;;;;;6.75;1.02;;;21.80;72.80;;;;;;6915598;28;20094;-78
2022/06/08 11:30:56;;;;;;;3.90;0.98;;;21.90;75.70;;;;;;6915212;28;20131;-79
2022/06/08 11:34:47;;;;;;;4.15;0.93;;;22.10;75.60;;;;;;6914903;28;20053;-80
2022/06/08 11:38:21;;;;;;;6.32;1.35;;;22.30;71.00;;;;;;6915234;28;20136;-78
2022/06/08 11:41:57;;;;;;;2.92;0.80;;;22.40;66.60;;;;;;6924726;28;20057;-80
2022/06/08 11:45:24;;;;;;;6.05;0.95;;;22.50;67.60;;;;;;6922748;28;20077;-79
2022/06/08 11:48:49;;;;;;;6.97;1.25;;;22.60;69.80;;;;;;6922680;28;20054;-77
2022/06/08 11:52:30;;;;;;;3.70;0.90;;;22.70;65.10;;;;;;6927891;28;20068;-78
2022/06/08 11:56:08;;;;;;;5.95;1.02;;;22.70;62.60;;;;;;6927698;28;20240;-77
2022/06/08 11:59:37;;;;;;;4.20;1.00;;;22.80;62.70;;;;;;6921455;28;20045;-77
2022/06/08 12:03:05;;;;;;;2.92;0.90;;;22.90;66.40;;;;;;6921111;28;20050;-77
2022/06/08 12:06:33;;;;;;;2.60;0.80;;;23.00;63.50;;;;;;6920825;28;20046;-78
2022/06/08 12:09:55;;;;;;;2.95;0.93;;;23.10;62.90;;;;;;6920342;28;20073;-76
2022/06/08 12:13:21;;;;;;;3.88;1.10;;;23.20;61.50;;;;;;6920717;28;20085;-77
2022/06/08 12:16:58;;;;;;;2.88;0.80;;;23.20;62.00;;;;;;6921653;28;20046;-77
2022/06/08 12:20:34;;;;;;;2.70;0.90;;;23.40;63.20;;;;;;6923467;28;20057;-77
2022/06/08 12:24:20;;;;;;;3.97;0.98;;;23.50;63.20;;;;;;6925422;28;20134;-77
2022/06/08 12:27:45;;;;;;;3.70;0.82;;;23.50;63.70;;;;;;6919341;28;20423;-78
2022/06/08 12:31:31;;;;;;;3.20;0.82;;;23.60;60.30;;;;;;6919639;28;20155;-75
2022/06/08 12:35:24;;;;;;;8.32;1.00;;;23.70;59.30;;;;;;6919551;28;20089;-76
2022/06/08 12:39:01;;;;;;;3.13;0.88;;;23.80;62.10;;;;;;6919181;28;20093;-79
2022/06/08 12:42:26;;;;;;;3.40;1.10;;;24.10;60.30;;;;;;6918769;28;20127;-79
2022/06/08 12:46:15;;;;;;;2.92;0.80;;;24.30;59.60;;;;;;6919084;28;20097;-76
2022/06/08 12:49:45;;;;;;;1.88;0.70;;;24.20;59.10;;;;;;6918558;28;20089;-80
2022/06/08 12:53:09;;;;;;;5.00;0.90;;;24.20;57.80;;;;;;6917195;28;20054;-78
2022/06/08 12:56:31;;;;;;;3.35;0.98;;;24.20;58.50;;;;;;6918421;28;20476;-77
2022/06/08 12:59:57;;;;;;;3.42;0.80;;;24.20;59.60;;;;;;6917926;28;20140;-79
2022/06/08 13:03:24;;;;;;;4.55;0.80;;;24.20;59.00;;;;;;6918131;28;20049;-78
2022/06/08 13:06:47;;;;;;;3.33;1.08;;;24.30;57.10;;;;;;6918089;28;20050;-79
2022/06/08 13:10:11;;;;;;;2.65;0.75;;;24.30;57.90;;;;;;6917859;28;20502;-80
2022/06/08 13:13:37;;;;;;;2.97;0.75;;;24.50;57.60;;;;;;6917673;28;20151;-77
2022/06/08 13:16:59;;;;;;;3.45;0.98;;;24.60;57.60;;;;;;6917923;28;20046;-79
2022/06/08 13:20:24;;;;;;;4.78;1.08;;;24.70;57.50;;;;;;6918306;28;20128;-79
2022/06/08 13:23:46;;;;;;;4.80;1.02;;;24.70;55.90;;;;;;6917763;28;20046;-79
2022/06/08 13:27:13;;;;;;;3.90;1.00;;;24.50;55.50;;;;;;6917327;28;20046;-78
2022/06/08 13:30:37;;;;;;;2.08;0.73;;;24.70;57.20;;;;;;6917524;28;20380;-76
2022/06/08 13:34:02;;;;;;;2.70;0.75;;;24.80;55.30;;;;;;6917472;28;20545;-79
2022/06/08 13:37:33;;;;;;;3.22;0.98;;;24.70;55.20;;;;;;6917358;28;20049;-80
2022/06/08 13:40:55;;;;;;;3.33;0.80;;;25.00;56.10;;;;;;6917300;28;20050;-79
2022/06/08 13:44:25;;;;;;;3.88;1.20;;;25.10;54.70;;;;;;6917095;28;20061;-77
2022/06/08 13:47:54;;;;;;;4.13;0.95;;;25.20;56.90;;;;;;6917342;28;20046;-76
2022/06/08 13:51:17;;;;;;;2.95;0.80;;;25.20;58.10;;;;;;6917263;28;20068;-78
2022/06/08 13:54:42;;;;;;;3.70;0.90;;;25.50;59.80;;;;;;6916860;28;20049;-76
2022/06/08 13:58:08;;;;;;;2.80;0.90;;;25.60;58.30;;;;;;6917160;28;20065;-77
2022/06/08 14:01:33;;;;;;;2.85;0.85;;;25.60;57.60;;;;;;6916606;28;20081;-77
2022/06/08 14:04:57;;;;;;;3.53;1.10;;;25.90;55.40;;;;;;6916607;28;20056;-79
2022/06/08 14:15:47;;;;;;;4.47;1.00;;;25.90;55.00;;;;;;6888908;28;20140;-79
2022/06/08 14:19:18;;;;;;;2.75;1.00;;;25.90;55.70;;;;;;6889095;28;20058;-79
2022/06/08 14:22:41;;;;;;;5.57;1.05;;;25.80;54.50;;;;;;6889188;28;20054;-76
2022/06/08 14:26:03;;;;;;;3.10;0.80;;;25.70;55.30;;;;;;6889271;28;20511;-78
2022/06/08 14:29:27;;;;;;;3.00;0.80;;;25.60;54.90;;;;;;6888951;28;20053;-79
2022/06/08 14:32:52;;;;;;;2.30;0.77;;;25.40;55.40;;;;;;6888923;28;20121;-80
2022/06/08 14:36:22;;;;;;;3.03;0.88;;;25.30;55.80;;;;;;6889009;28;20082;-79
2022/06/08 14:39:45;;;;;;;3.60;0.85;;;25.00;56.70;;;;;;6888612;28;20519;-79
2022/06/08 14:43:07;;;;;;;4.53;0.90;;;24.80;57.80;;;;;;6888858;28;20460;-77
2022/06/08 14:46:31;;;;;;;4.15;1.00;;;24.70;57.80;;;;;;6888934;28;20085;-79
2022/06/08 14:49:54;;;;;;;4.07;0.88;;;24.60;58.80;;;;;;6888511;28;20104;-77
2022/06/08 14:53:22;;;;;;;5.63;1.10;;;24.20;57.70;;;;;;6899528;28;20479;-79
2022/06/08 14:56:44;;;;;;;4.65;1.00;;;24.00;57.80;;;;;;6942283;28;20555;-79
2022/06/08 15:00:16;;;;;;;3.28;0.82;;;23.90;58.70;;;;;;6938611;28;20084;-80
2022/06/08 15:03:38;;;;;;;3.13;0.85;;;23.60;60.40;;;;;;6941373;28;20042;-79
2022/06/08 15:07:03;;;;;;;3.20;1.00;;;23.60;60.70;;;;;;6940110;28;20138;-79
2022/06/08 15:10:26;;;;;;;3.53;1.10;;;23.40;61.50;;;;;;6912323;28;20415;-79
2022/06/08 15:13:48;;;;;;;2.45;0.85;;;23.30;61.90;;;;;;6912181;28;20058;-79
2022/06/08 15:17:17;;;;;;;3.95;0.98;;;23.30;61.40;;;;;;6899635;28;20042;-79
2022/06/08 15:20:40;;;;;;;3.92;0.75;;;23.20;61.70;;;;;;6890492;28;20051;-80
2022/06/08 15:24:02;;;;;;;6.95;1.10;;;22.90;58.50;;;;;;6890366;28;20488;-77
2022/06/08 15:27:34;;;;;;;5.97;1.35;;;22.50;58.90;;;;;;6899735;28;20065;-79
2022/06/08 15:30:56;;;;;;;9.07;1.20;;;22.40;59.60;;;;;;6920057;28;20049;-78
2022/06/08 15:34:28;;;;;;;5.78;1.08;;;22.20;61.50;;;;;;6916514;28;20439;-78
2022/06/08 15:37:53;;;;;;;24.37;2.63;;;21.90;62.20;;;;;;6915059;28;20092;-79
2022/06/08 15:41:16;;;;;;;21.95;4.60;;;21.70;65.50;;;;;;6901675;28;20096;-79
2022/06/08 15:44:40;;;;;;;37.35;11.38;;;21.40;67.10;;;;;;6891234;28;20501;-79
2022/06/08 15:48:06;;;;;;;5.20;1.00;;;21.20;68.00;;;;;;6898512;28;20505;-80
2022/06/08 15:51:31;;;;;;;4.15;1.02;;;20.90;69.50;;;;;;6896403;28;20503;-80
2022/06/08 15:54:57;;;;;;;4.80;0.90;;;20.70;71.80;;;;;;6892558;28;20496;-80
2022/06/08 15:58:24;;;;;;;5.43;1.38;;;20.50;74.40;;;;;;6892537;28;20052;-79
2022/06/08 16:01:47;;;;;;;4.93;1.10;;;20.30;75.80;;;;;;6893166;28;20085;-79
2022/06/08 16:05:10;;;;;;;5.35;1.30;;;20.20;79.30;;;;;;6893501;28;20056;-80
2022/06/08 16:08:33;;;;;;;7.07;1.40;;;20.10;81.20;;;;;;6892510;28;20057;-78
2022/06/08 16:11:55;;;;;;;4.35;1.20;;;20.00;83.60;;;;;;6904174;28;20172;-79
2022/06/08 16:15:19;;;;;;;4.47;1.30;;;19.90;86.50;;;;;;6919397;28;20089;-79
2022/06/08 16:18:42;;;;;;;4.15;1.08;;;19.80;88.70;;;;;;6917044;28;20041;-78
2022/06/08 16:22:05;;;;;;;5.00;1.25;;;19.80;90.40;;;;;;6915569;28;20089;-79
2022/06/08 16:25:27;;;;;;;;;;;19.60;91.80;;;;;;6904560;28;20487;-79
2022/06/08 16:28:50;;;;;;;4.53;1.27;;;19.60;92.40;;;;;;6917091;28;19921;-79
2022/06/08 16:32:12;;;;;;;5.32;1.55;;;19.70;93.60;;;;;;6923776;28;20102;-79
2022/06/08 16:35:36;;;;;;;4.93;1.58;;;19.70;93.90;;;;;;6920534;28;20113;-80
2022/06/08 16:38:58;;;;;;;5.07;1.50;;;19.70;95.00;;;;;;6917647;28;20042;-81
2022/06/08 16:42:20;;;;;;;6.15;1.60;;;19.70;95.60;;;;;;6912041;28;20038;-79
2022/06/08 16:45:43;;;;;;;4.00;1.20;;;19.60;96.20;;;;;;6917491;28;20073;-79
2022/06/08 16:49:05;;;;;;;;;;;19.60;97.10;;;;;;6912676;28;20097;-78
2022/06/08 16:52:28;;;;;;;6.10;1.30;;;19.60;97.00;;;;;;6905841;28;19945;-79
2022/06/08 16:55:51;;;;;;;3.70;1.20;;;19.50;97.40;;;;;;6918086;28;20073;-78
2022/06/08 17:02:53;;;;;;;4.95;1.50;;;19.50;98.10;;;;;;6904912;28;20043;-80
2022/06/08 17:06:17;;;;;;;6.95;1.70;;;19.30;97.60;;;;;;6906120;28;20050;-80
2022/06/08 17:09:42;;;;;;;5.43;1.23;;;19.20;98.60;;;;;;6904918;28;20047;-80
2022/06/08 17:13:04;;;;;;;3.70;1.50;;;19.00;98.80;;;;;;6943928;28;20493;-82
2022/06/08 17:16:27;;;;;;;5.82;1.35;;;18.90;99.30;;;;;;6945211;28;20049;-80
2022/06/08 17:19:49;;;;;;;5.60;1.40;;;18.80;99.40;;;;;;6941388;28;20091;-80
2022/06/08 17:23:11;;;;;;;3.42;1.30;;;18.60;99.90;;;;;;6944432;28;20085;-79
2022/06/08 17:26:35;;;;;;;5.80;1.90;;;18.60;99.90;;;;;;6944818;28;20049;-86
2022/06/08 17:29:57;;;;;;;9.93;1.85;;;18.70;99.90;;;;;;6944323;28;20053;-81
2022/06/08 17:33:19;;;;;;;5.85;2.15;;;18.80;99.90;;;;;;6924136;28;20081;-85
2022/06/08 17:36:41;;;;;;;7.13;2.10;;;18.80;99.90;;;;;;6918592;28;20080;-84
2022/06/08 17:40:05;;;;;;;4.68;1.42;;;18.90;99.90;;;;;;6922369;28;20316;-86
2022/06/08 17:43:29;;;;;;;4.35;1.30;;;19.10;99.90;;;;;;6921531;28;20088;-84
2022/06/08 17:46:51;;;;;;;5.13;1.50;;;19.20;99.90;;;;;;6916914;28;20050;-83
2022/06/08 17:50:17;;;;;;;4.93;2.35;;;19.30;99.90;;;;;;6916539;28;20042;-83
2022/06/08 17:53:40;;;;;;;5.15;1.50;;;19.20;99.90;;;;;;6909469;28;20084;-83
2022/06/08 17:57:02;;;;;;;;;;;19.20;99.90;;;;;;6918421;28;20089;-84
2022/06/08 18:00:26;;;;;;;4.88;1.20;;;19.20;99.90;;;;;;6917096;28;19968;-82
2022/06/08 18:03:48;;;;;;;4.78;1.30;;;19.30;99.90;;;;;;6922854;28;20069;-84
2022/06/08 18:07:13;;;;;;;3.95;1.48;;;19.40;99.90;;;;;;6934747;28;20123;-83
2022/06/08 18:10:41;;;;;;;3.53;1.33;;;19.40;99.90;;;;;;6934974;28;20188;-83
2022/06/08 18:14:03;;;;;;;3.75;1.35;;;19.50;99.90;;;;;;6939724;28;20046;-84
2022/06/08 18:17:29;;;;;;;5.63;1.50;;;19.40;99.90;;;;;;6942597;28;20046;-83
2022/06/08 18:20:52;;;;;;;3.97;1.30;;;19.40;99.90;;;;;;6946863;28;20084;-78